Eastpoint, Pennsylvania
Current Conditions -  °F | °C
As of 6:54 AM on Wednesday 28 Jan 2015 (Local Time) from KIPT Reporting Station
Clear Clear  
Wind Chill: -22°   Ceiling: Unl
Heat Index: -12°   Visibility: 10mi
Dew Point: -17°   Wind: 20mph
Humidity: 67%   Direction: 270°W
Pressure: 30.15"   Gusts: NA
Location:  41.5548°N, 76.8911°W
Report Text: KIPT 281154Z 27017KT 10SM CLR M12/M17 A3015 RMK AO2 SLP219 T11171167 11100 21117 53026
Loading
Personal Weather Stations






























Interactive Weather Map New forecast layout! Learn more

10-Day Weather Forecast

Advertisements
Track Severe Weather on mobile